Terminal Aerodrome Forecast
Issued by NWS

Home | Current Version | Previous Version | Text Only | Print | Product List | Glossary On
Versions: 1 2 3 4 5 6 7 8 9 10 11 12 13 14 15 16 17 18 19 20 21 22 23 24 25 26 27 28 29 30 31 32 33 34
000
FTUS41 KILN 152334
TAFLUK
TAF
KLUK 152334Z 1600/1624 16005KT P6SM BKN250
     FM160200 00000KT P6SM BKN200
     FM161500 26006KT P6SM SCT050
     FM161800 29007KT P6SM SCT050=

USA.gov is the U.S. government's official web portal to all federal, state and local government web resources and services.